createdAt,value
2022-08-10T00:00:16.392Z,100836.81
2022-08-10T00:03:18.810Z,100832.31
2022-08-10T00:06:20.927Z,100838.62
2022-08-10T00:09:24.118Z,100830.44
2022-08-10T00:12:53.817Z,100825.56
2022-08-10T00:15:54.061Z,100821.06
2022-08-10T00:18:56.843Z,100821.38
2022-08-10T00:21:59.167Z,100822.69
2022-08-10T00:25:02.455Z,100825.03
2022-08-10T00:28:04.879Z,100822.50
2022-08-10T00:31:07.110Z,100831.34
2022-08-10T00:34:09.542Z,100826.19
2022-08-10T00:37:17.250Z,100826.50
2022-08-10T00:40:19.729Z,100828.47
2022-08-10T00:43:40.040Z,100825.78
2022-08-10T00:46:42.453Z,100826.25
2022-08-10T00:49:45.298Z,100829.41
2022-08-10T00:52:47.909Z,100820.25
2022-08-10T00:56:35.262Z,100827.72
2022-08-10T00:59:13.536Z,100834.75
2022-08-10T01:02:15.735Z,100830.59
2022-08-10T01:05:22.312Z,100827.34
2022-08-10T01:08:39.686Z,100820.66
2022-08-10T01:12:38.725Z,100822.81
2022-08-10T01:15:37.165Z,100819.13
2022-08-10T01:18:59.308Z,100819.06
2022-08-10T01:22:21.395Z,100813.00
2022-08-10T01:26:10.827Z,100816.81
2022-08-10T01:29:52.544Z,100817.59
2022-08-10T01:33:05.555Z,100821.56
2022-08-10T01:36:19.578Z,100819.34
2022-08-10T01:39:39.604Z,100825.31
2022-08-10T01:42:45.690Z,100820.16
2022-08-10T01:45:55.453Z,100832.09
2022-08-10T01:48:59.580Z,100828.59
2022-08-10T01:52:04.734Z,100832.09
2022-08-10T01:55:08.295Z,100834.25
2022-08-10T01:58:12.700Z,100828.47
2022-08-10T02:01:18.701Z,100832.09
2022-08-10T02:04:23.475Z,100830.06
2022-08-10T02:07:28.202Z,100828.88
2022-08-10T02:10:33.283Z,100827.88
2022-08-10T02:13:37.675Z,100827.19
2022-08-10T02:16:42.481Z,100827.88
2022-08-10T02:19:46.883Z,100822.38
2022-08-10T02:22:53.192Z,100830.84
2022-08-10T02:25:58.550Z,100825.09
2022-08-10T02:29:01.927Z,100827.75
2022-08-10T02:32:06.413Z,100829.38
2022-08-10T02:35:22.232Z,100827.00
2022-08-10T02:38:58.092Z,100831.97
2022-08-10T02:45:01.157Z,100828.75
2022-08-10T02:45:39.615Z,100834.09
2022-08-10T02:48:45.875Z,100841.25
2022-08-10T02:52:06.205Z,100845.38
2022-08-10T02:55:41.295Z,100845.66
2022-08-10T02:58:45.844Z,100846.81
2022-08-10T03:01:55.831Z,100844.38
2022-08-10T03:05:04.066Z,100849.56
2022-08-10T03:08:10.225Z,100859.69
2022-08-10T03:12:35.971Z,100854.81
2022-08-10T03:14:48.716Z,100853.84
2022-08-10T03:17:57.403Z,100866.16
2022-08-10T03:21:02.068Z,100869.66
2022-08-10T03:24:26.146Z,100869.44
2022-08-10T03:27:30.028Z,100867.75
2022-08-10T03:30:34.317Z,100878.16
2022-08-10T03:33:39.819Z,100876.50
2022-08-10T03:36:45.106Z,100883.41
2022-08-10T03:39:47.983Z,100876.34
2022-08-10T03:42:51.814Z,100880.38
2022-08-10T03:45:58.206Z,100889.22
2022-08-10T03:49:03.042Z,100885.56
2022-08-10T03:52:06.665Z,100884.59
2022-08-10T03:55:09.101Z,100887.78
2022-08-10T03:58:12.433Z,100894.19
2022-08-10T04:01:16.032Z,100899.50
2022-08-10T04:04:24.054Z,100892.03
2022-08-10T04:07:28.176Z,100901.28
2022-08-10T04:10:30.673Z,100887.09
2022-08-10T04:13:32.837Z,100894.06
2022-08-10T04:16:35.821Z,100892.88
2022-08-10T04:19:44.111Z,100891.47
2022-08-10T04:22:53.388Z,100892.56
2022-08-10T04:25:56.221Z,100889.28
2022-08-10T04:28:58.760Z,100898.66
2022-08-10T04:32:03.687Z,100890.56
2022-08-10T04:35:07.779Z,100890.19
2022-08-10T04:38:14.245Z,100900.25
2022-08-10T04:41:16.881Z,100896.41
2022-08-10T04:44:19.110Z,100888.09
2022-08-10T04:47:57.338Z,100893.31
2022-08-10T04:50:43.642Z,100911.56
2022-08-10T04:54:03.845Z,100909.38
2022-08-10T04:57:08.844Z,100904.63
2022-08-10T05:00:17.959Z,100913.44
2022-08-10T05:03:21.603Z,100907.06
2022-08-10T05:06:24.139Z,100906.84
2022-08-10T05:09:26.404Z,100902.72
2022-08-10T05:12:29.529Z,100906.22
2022-08-10T05:15:32.003Z,100914.41
2022-08-10T05:18:34.543Z,100915.28
2022-08-10T05:21:53.810Z,100918.22
2022-08-10T05:24:59.406Z,100921.41
2022-08-10T05:28:06.111Z,100926.19
2022-08-10T05:31:09.130Z,100929.16
2022-08-10T05:34:20.531Z,100923.97
2022-08-10T05:38:09.560Z,100926.72
2022-08-10T05:40:49.209Z,100911.91
2022-08-10T05:43:51.722Z,100917.63
2022-08-10T05:46:53.949Z,100919.88
2022-08-10T05:49:56.700Z,100913.78
2022-08-10T05:53:02.550Z,100931.31
2022-08-10T05:56:21.532Z,100932.37
2022-08-10T06:00:29.473Z,100928.87
2022-08-10T06:02:52.160Z,100920.03
2022-08-10T06:05:57.235Z,100924.91
2022-08-10T06:09:00.610Z,100923.25
2022-08-10T06:12:28.113Z,100925.63
2022-08-10T06:15:50.184Z,100921.63
2022-08-10T06:18:52.008Z,100924.72
2022-08-10T06:22:01.363Z,100929.59
2022-08-10T06:25:51.017Z,100925.47
2022-08-10T06:28:31.070Z,100930.66
2022-08-10T06:31:47.678Z,100920.78
2022-08-10T06:34:58.627Z,100922.53
2022-08-10T06:38:04.408Z,100918.66
2022-08-10T06:41:18.082Z,100916.53
2022-08-10T06:44:30.220Z,100924.91
2022-08-10T06:47:54.059Z,100932.59
2022-08-10T06:51:08.183Z,100928.06
2022-08-10T06:54:12.456Z,100931.22
2022-08-10T06:57:18.552Z,100928.59
2022-08-10T07:00:22.745Z,100925.22
2022-08-10T07:03:49.022Z,100919.69
2022-08-10T07:06:53.037Z,100923.19
2022-08-10T07:10:00.107Z,100923.78
2022-08-10T07:13:04.163Z,100929.34
2022-08-10T07:16:10.594Z,100922.59
2022-08-10T07:19:14.494Z,100921.19
2022-08-10T07:23:01.784Z,100925.09
2022-08-10T07:25:42.670Z,100921.00
2022-08-10T07:28:48.267Z,100922.47
2022-08-10T07:31:55.932Z,100921.00
2022-08-10T07:35:01.344Z,100919.06
2022-08-10T07:38:07.485Z,100907.81
2022-08-10T07:41:10.569Z,100912.81
2022-08-10T07:44:14.423Z,100902.44
2022-08-10T07:47:53.163Z,100909.38
2022-08-10T07:50:46.380Z,100913.34
2022-08-10T07:53:53.892Z,100910.88
2022-08-10T07:57:01.484Z,100895.13
2022-08-10T08:00:08.121Z,100900.84
2022-08-10T08:03:15.829Z,100905.44
2022-08-10T08:06:19.076Z,100905.78
2022-08-10T08:09:23.536Z,100895.63
2022-08-10T08:12:27.537Z,100894.87
2022-08-10T08:16:17.291Z,100892.78
2022-08-10T08:19:26.376Z,100888.37
2022-08-10T08:24:07.662Z,100893.22
2022-08-10T08:25:45.290Z,100886.81
2022-08-10T08:28:48.901Z,100890.28
2022-08-10T08:32:01.086Z,100888.37
2022-08-10T08:35:10.181Z,100889.19
2022-08-10T08:38:32.937Z,100874.81
2022-08-10T08:41:57.145Z,100886.03
2022-08-10T08:45:18.295Z,100874.03
2022-08-10T08:48:20.336Z,100876.66
2022-08-10T08:52:09.648Z,100875.56
2022-08-10T08:55:56.119Z,100867.37
2022-08-10T08:59:11.290Z,100883.50
2022-08-10T09:02:54.836Z,100876.50
2022-08-10T09:06:12.550Z,100881.66
2022-08-10T09:10:04.233Z,100868.00
2022-08-10T09:13:39.659Z,100860.72
2022-08-10T09:16:50.030Z,100864.88
2022-08-10T09:20:06.882Z,100866.72
2022-08-10T09:24:01.985Z,100858.19
2022-08-10T09:27:09.659Z,100862.69
2022-08-10T09:30:16.381Z,100854.22
2022-08-10T09:36:21.775Z,100845.69
2022-08-10T09:37:20.178Z,100848.91
2022-08-10T09:41:00.978Z,100851.31
2022-08-10T09:44:19.144Z,100854.66
2022-08-10T09:48:01.506Z,100853.66
2022-08-10T09:51:54.935Z,100841.47
2022-08-10T09:55:20.552Z,100848.41
2022-08-10T09:58:47.917Z,100842.38
2022-08-10T10:02:03.806Z,100833.84
2022-08-10T10:05:12.405Z,100827.41
2022-08-10T10:08:24.876Z,100832.38
2022-08-10T10:11:33.290Z,100832.56
2022-08-10T10:15:24.297Z,100829.78
2022-08-10T10:18:41.948Z,100818.91
2022-08-10T10:21:54.620Z,100819.03
2022-08-10T10:25:19.465Z,100822.56
2022-08-10T10:29:15.339Z,100821.28
2022-08-10T10:32:08.575Z,100810.37
2022-08-10T10:35:36.113Z,100817.03
2022-08-10T10:38:40.117Z,100805.97
2022-08-10T10:41:56.152Z,100812.00
2022-08-10T10:45:22.436Z,100791.16
2022-08-10T10:48:34.080Z,100792.09
2022-08-10T10:52:05.519Z,100792.31
2022-08-10T10:55:16.415Z,100802.78
2022-08-10T10:58:45.696Z,100793.59
2022-08-10T11:01:51.389Z,100797.28
2022-08-10T11:05:18.300Z,100789.87
2022-08-10T11:08:28.840Z,100797.72
2022-08-10T11:12:01.737Z,100793.69
2022-08-10T11:15:28.456Z,100782.47
2022-08-10T11:18:33.804Z,100789.25
2022-08-10T11:21:54.822Z,100784.00
2022-08-10T11:25:13.603Z,100765.31
2022-08-10T11:28:37.064Z,100769.06
2022-08-10T11:31:44.972Z,100767.25
2022-08-10T11:35:10.375Z,100775.53
2022-08-10T11:38:29.819Z,100766.37
2022-08-10T11:42:11.699Z,100776.06
2022-08-10T11:45:07.947Z,100769.28
2022-08-10T11:48:53.657Z,100775.44
2022-08-10T11:51:57.019Z,100769.00
2022-08-10T11:55:05.382Z,100764.84
2022-08-10T11:58:44.984Z,100762.44
2022-08-10T12:01:49.816Z,100757.72
2022-08-10T12:05:17.159Z,100755.59
2022-08-10T12:10:04.278Z,100758.41
2022-08-10T12:11:48.778Z,100756.59
2022-08-10T12:15:11.338Z,100758.06
2022-08-10T12:18:25.492Z,100754.53
2022-08-10T12:21:56.827Z,100745.22
2022-08-10T12:25:04.121Z,100733.03
2022-08-10T12:28:20.322Z,100734.59
2022-08-10T12:31:45.545Z,100734.84
2022-08-10T12:35:01.501Z,100736.31
2022-08-10T12:38:27.694Z,100733.62
2022-08-10T12:41:44.906Z,100729.88
2022-08-10T12:45:02.231Z,100731.44
2022-08-10T12:48:32.670Z,100728.75
2022-08-10T12:51:38.200Z,100737.25
2022-08-10T12:54:42.295Z,100727.91
2022-08-10T12:57:53.362Z,100734.78
2022-08-10T13:01:15.717Z,100727.47
2022-08-10T13:04:34.940Z,100718.03
2022-08-10T13:08:25.327Z,100718.97
2022-08-10T13:12:33.847Z,100710.38
2022-08-10T13:14:59.692Z,100701.25
2022-08-10T13:18:18.217Z,100697.66
2022-08-10T13:21:23.218Z,100704.66
2022-08-10T13:24:34.206Z,100702.78
2022-08-10T13:28:01.355Z,100708.19
2022-08-10T13:31:17.050Z,100701.41
2022-08-10T13:34:43.652Z,100700.38
2022-08-10T13:37:48.581Z,100699.31
2022-08-10T13:40:52.610Z,100699.25
2022-08-10T13:43:59.957Z,100692.34
2022-08-10T13:47:02.412Z,100695.84
2022-08-10T13:50:34.915Z,100690.34
2022-08-10T13:53:39.052Z,100681.13
2022-08-10T13:56:45.730Z,100687.09
2022-08-10T14:00:36.732Z,100684.91
2022-08-10T14:03:17.295Z,100681.22
2022-08-10T14:06:29.341Z,100676.19
2022-08-10T14:09:34.099Z,100671.09
2022-08-10T14:12:44.252Z,100666.81
2022-08-10T14:15:50.071Z,100666.09
2022-08-10T14:18:54.970Z,100662.00
2022-08-10T14:21:58.222Z,100658.16
2022-08-10T14:25:15.596Z,100660.03
2022-08-10T14:28:24.985Z,100657.63
2022-08-10T14:31:35.264Z,100657.16
2022-08-10T14:36:16.189Z,100652.16
2022-08-10T14:38:11.777Z,100656.34
2022-08-10T14:42:01.592Z,100657.13
2022-08-10T14:44:55.902Z,100650.81
2022-08-10T14:48:20.261Z,100645.97
2022-08-10T14:51:27.756Z,100649.94
2022-08-10T14:54:51.584Z,100643.84
2022-08-10T14:58:20.026Z,100643.78
2022-08-10T15:01:20.611Z,100639.44
2022-08-10T15:04:26.761Z,100629.19
2022-08-10T15:07:33.529Z,100632.53
2022-08-10T15:10:38.183Z,100627.78
2022-08-10T15:14:15.176Z,100623.37
2022-08-10T15:17:27.993Z,100629.38
2022-08-10T15:20:32.065Z,100628.28
2022-08-10T15:24:05.755Z,100620.75
2022-08-10T15:27:00.500Z,100632.38
2022-08-10T15:30:05.202Z,100629.25
2022-08-10T15:34:00.247Z,100625.53
2022-08-10T15:37:39.966Z,100640.13
2022-08-10T15:40:50.676Z,100633.41
2022-08-10T15:43:55.111Z,100630.94
2022-08-10T15:47:02.488Z,100627.66
2022-08-10T15:50:06.865Z,100625.97
2022-08-10T15:53:27.851Z,100628.91
2022-08-10T15:56:39.991Z,100624.97
2022-08-10T15:59:59.670Z,100624.78
2022-08-10T16:03:13.104Z,100622.50
2022-08-10T16:06:28.650Z,100622.53
2022-08-10T16:10:26.619Z,100615.72
2022-08-10T16:13:01.378Z,100620.28
2022-08-10T16:16:07.314Z,100624.28
2022-08-10T16:19:24.054Z,100617.88
2022-08-10T16:22:33.960Z,100623.69
2022-08-10T16:25:52.760Z,100625.19
2022-08-10T16:29:11.463Z,100620.41
2022-08-10T16:32:15.472Z,100620.84
2022-08-10T16:35:21.685Z,100628.72
2022-08-10T16:38:25.813Z,100620.44
2022-08-10T16:42:00.742Z,100621.91
2022-08-10T16:45:06.084Z,100613.16
2022-08-10T16:48:10.132Z,100617.31
2022-08-10T16:51:18.915Z,100619.78
2022-08-10T16:54:27.075Z,100624.13
2022-08-10T16:57:34.041Z,100627.00
2022-08-10T17:00:37.703Z,100622.03
2022-08-10T17:04:06.624Z,100627.63
2022-08-10T17:07:14.410Z,100637.94
2022-08-10T17:10:20.152Z,100637.06
2022-08-10T17:13:27.642Z,100633.09
2022-08-10T17:16:35.393Z,100630.78
2022-08-10T17:19:42.555Z,100632.22
2022-08-10T17:22:46.165Z,100635.91
2022-08-10T17:25:51.100Z,100638.78
2022-08-10T17:29:00.478Z,100639.97
2022-08-10T17:32:14.631Z,100650.06
2022-08-10T17:35:23.457Z,100642.72
2022-08-10T17:38:28.947Z,100644.53
2022-08-10T17:41:33.638Z,100649.03
2022-08-10T17:44:38.931Z,100652.12
2022-08-10T17:47:48.838Z,100656.03
2022-08-10T17:50:52.347Z,100659.75
2022-08-10T17:53:57.750Z,100654.13
2022-08-10T17:57:04.937Z,100664.41
2022-08-10T18:00:14.595Z,100657.50
2022-08-10T18:03:27.004Z,100657.06
2022-08-10T18:06:30.730Z,100658.38
2022-08-10T18:09:44.405Z,100659.53
2022-08-10T18:12:53.043Z,100661.94
2022-08-10T18:15:57.510Z,100659.19
2022-08-10T18:19:07.620Z,100664.72
2022-08-10T18:22:12.860Z,100657.87
2022-08-10T18:25:26.595Z,100664.63
2022-08-10T18:28:30.646Z,100675.31
2022-08-10T18:31:36.018Z,100680.44
2022-08-10T18:34:42.130Z,100682.56
2022-08-10T18:37:49.859Z,100680.91
2022-08-10T18:41:02.419Z,100684.56
2022-08-10T18:44:17.528Z,100684.63
2022-08-10T18:47:31.204Z,100691.13
2022-08-10T18:50:44.107Z,100695.00
2022-08-10T18:53:52.944Z,100693.91
2022-08-10T18:56:57.772Z,100703.25
2022-08-10T19:00:08.646Z,100697.91
2022-08-10T19:03:14.255Z,100703.97
2022-08-10T19:06:36.859Z,100709.25
2022-08-10T19:09:56.333Z,100699.25
2022-08-10T19:13:27.004Z,100710.56
2022-08-10T19:16:40.842Z,100713.62
2022-08-10T19:19:56.005Z,100717.31
2022-08-10T19:23:18.300Z,100718.41
2022-08-10T19:26:44.605Z,100714.44
2022-08-10T19:30:11.054Z,100720.00
2022-08-10T19:33:42.719Z,100729.94
2022-08-10T19:36:51.497Z,100723.16
2022-08-10T19:40:02.611Z,100719.06
2022-08-10T19:43:10.874Z,100722.47
2022-08-10T19:46:32.004Z,100725.03
2022-08-10T19:50:05.387Z,100725.03
2022-08-10T19:53:40.619Z,100722.53
2022-08-10T19:57:03.431Z,100727.78
2022-08-10T20:00:18.819Z,100725.34
2022-08-10T20:03:37.089Z,100724.22
2022-08-10T20:06:59.229Z,100731.94
2022-08-10T20:10:06.811Z,100724.25
2022-08-10T20:13:13.840Z,100725.63
2022-08-10T20:16:22.777Z,100730.94
2022-08-10T20:19:55.030Z,100735.28
2022-08-10T20:23:33.210Z,100732.41
2022-08-10T20:26:45.993Z,100731.81
2022-08-10T20:29:59.508Z,100738.22
2022-08-10T20:33:10.316Z,100743.25
2022-08-10T20:36:25.651Z,100751.84
2022-08-10T20:39:54.072Z,100751.00
2022-08-10T20:43:28.642Z,100748.50
2022-08-10T20:46:43.216Z,100761.53
2022-08-10T20:50:01.581Z,100762.56
2022-08-10T20:53:10.186Z,100768.22
2022-08-10T20:56:40.523Z,100778.28
2022-08-10T21:00:04.890Z,100772.09
2022-08-10T21:03:45.192Z,100774.56
2022-08-10T21:07:58.267Z,100772.44
2022-08-10T21:11:16.242Z,100778.28
2022-08-10T21:14:36.832Z,100780.16
2022-08-10T21:18:06.729Z,100781.69
2022-08-10T21:21:16.603Z,100772.50
2022-08-10T21:24:28.321Z,100771.84
2022-08-10T21:28:09.695Z,100772.37
2022-08-10T21:31:25.539Z,100775.38
2022-08-10T21:34:55.138Z,100777.06
2022-08-10T21:38:26.824Z,100775.06
2022-08-10T21:42:14.851Z,100767.25
2022-08-10T21:46:05.882Z,100773.25
2022-08-10T21:49:42.133Z,100766.78
2022-08-10T21:53:43.817Z,100776.84
2022-08-10T21:57:30.132Z,100776.47
2022-08-10T22:01:11.663Z,100767.12
2022-08-10T22:04:36.180Z,100773.31
2022-08-10T22:07:57.744Z,100784.53
2022-08-10T22:11:22.409Z,100774.03
2022-08-10T22:14:52.466Z,100777.53
2022-08-10T22:18:14.039Z,100782.37
2022-08-10T22:22:27.404Z,100775.87
2022-08-10T22:26:12.158Z,100781.88
2022-08-10T22:29:58.002Z,100777.72
2022-08-10T22:33:48.979Z,100775.41
2022-08-10T22:37:36.619Z,100776.00
2022-08-10T22:41:02.516Z,100779.34
2022-08-10T22:44:25.338Z,100769.31
2022-08-10T22:47:49.241Z,100770.13
2022-08-10T22:50:56.178Z,100775.66
2022-08-10T22:54:30.406Z,100768.97
2022-08-10T22:57:52.787Z,100769.31
2022-08-10T23:01:02.067Z,100769.97
2022-08-10T23:04:35.813Z,100768.13
2022-08-10T23:07:51.367Z,100772.47
2022-08-10T23:10:54.257Z,100765.44
2022-08-10T23:14:03.409Z,100776.47
2022-08-10T23:18:00.898Z,100779.47
2022-08-10T23:20:58.083Z,100768.44
2022-08-10T23:24:02.747Z,100769.97
2022-08-10T23:27:12.746Z,100771.28
2022-08-10T23:30:39.040Z,100773.63
2022-08-10T23:33:53.389Z,100768.94
2022-08-10T23:36:58.936Z,100768.56
2022-08-10T23:40:10.753Z,100762.72
2022-08-10T23:43:19.102Z,100763.88
2022-08-10T23:46:23.757Z,100757.66
2022-08-10T23:49:34.211Z,100746.63
2022-08-10T23:52:37.092Z,100758.00
2022-08-10T23:55:49.068Z,100750.59
2022-08-10T23:58:56.977Z,100753.81
